Atlantic City International Airport Atlantic City US
ICAO: KACY
IATA: ACY
Category: Medium
Scheduled Services: Yes

Elevation: 75 ft
TransAlt. 18000 ft.

Airport Communications:
APP/DEP:38.55
APP/DEP:124.6
ATIS:108.6
CLNC DEL:127.85
GND:121.9
ANG OPS:138.12
MILLVILLE RDO:122.55
TWR:120.3

KACY Zoom In..

Runways:

(A) RW 04 length 6144 ft width 150 ft
---- / hdg 38

(B) RW 13 length 10000 ft width 150 ft
ILS 109.10 / hdg 128

(C) RW 22 length 6144 ft width 150 ft
---- / hdg 218

(D) RW 31 length 10000 ft width 150 ft
ILS 109.10 / hdg 308

Location; KACY
Day. 25 / Time. 09.54 Zulu
* Altimeter: 29.87
* Temperature: 13° c. 55.4°f.
* Wind from: 110° Speed 13 kn with Gusts up to 21 kn.
Dewpoint: 13° c.
Visibility: 5 Statute Miles.
Clouds: Overcast 400 ft.
Conditions: Mist.

KACY 250954Z 11013G21KT 5SM BR OVC004 13/13 A2987 RMK AO2 SLP115 T01280128


Wind From 110°
Speed 13 kn.

  YouTube Music Video
 
jpsmedia.com for Web Design  worldairports.se 2018   terms of use